Terminal Aerodrome Forecast
Issued by NWS Austin/San Antonio, TX

Home | Current Version | Previous Version | Text Only | Print | Product List | Glossary On
Versions: 1 2 3 4 5 6 7 8 9 10 11 12 13 14 15 16 17 18 19
000
FTUS44 KEWX 150200 AAA
TAFDRT
TAF AMD
KDRT 150229Z 1502/1524 24004KT P6SM BKN025
     FM150900 03002KT P6SM OVC007
     FM151500 15007KT P6SM BKN020
     FM152000 15007KT P6SM OVC050=

USA.gov is the U.S. government's official web portal to all federal, state and local government web resources and services.